ClaSS B — XXXXXXX — position and weather

sailwx.info

Track history (hours):
 
Tides and Currents Weather Stations Pressure Air Temp Water Temp Dewpoint Dewpoint Depression Visibility Wind Speed Wind Dir Waves Ship Positions

ClaSS B

Last reported at 2018-Jun-23 00:00 UTC. Time now 2018-Jun-23 00:23 UTC.
Position N 21°06' E 072°40'.

Type: Pleasure craft. MMSI: 203888027.

Date/timePositionNaut miles runAvg speedWind from/ knotsBaromVisibWave heightAir tempDewpointWater temp
2018-Jun-23 00:00N 21°06' E 072°40'079.2
2018-Jun-23 00:00N 21°06' E 072°40'8273175202.0
2018-Jun-22 23:58N 32°01' W 081°01'827318306.2
2018-Jun-22 23:30N 21°06' E 072°40'0118.8
2018-Jun-22 23:30N 21°06' E 072°40'8273174177.3
2018-Jun-22 23:28N 32°01' W 081°01'827317665.6
2018-Jun-22 22:59N 21°06' E 072°40'0 5.5
2018-Jun-22 22:59N 21°06' E 072°40'8273431657.0
2018-Jun-22 22:58N 32°01' W 081°01'827318250.2
2018-Jun-22 22:30N 21°06' E 072°40'8273176238.7
2018-Jun-22 22:28N 32°01' W 081°01'8273278356.8
2018-Jun-22 22:26N 21°06' E 072°40'0 0.0
2018-Jun-22 22:00N 21°06' E 072°40'079.2
2018-Jun-22 22:00N 21°06' E 072°40'8273176238.7
2018-Jun-22 21:58N 32°01' W 081°01'827318295.0
2018-Jun-22 21:30N 21°06' E 072°40'0238.5
2018-Jun-22 21:30N 21°06' E 072°40'8273175202.0
2018-Jun-22 21:28N 32°01' W 081°01'827318306.2
2018-Jun-22 21:00N 21°06' E 072°40'059.6
2018-Jun-22 21:00N 21°06' E 072°40'827356196.8
2018-Jun-22 20:52N 32°01' W 081°01'827323526.2
2018-Jun-22 20:30N 21°06' E 072°40'0 5.4
2018-Jun-22 20:30N 21°06' E 072°40'8273229110.3
2018-Jun-22 20:28N 32°01' W 081°01'827318306.2
2018-Jun-22 20:00N 21°06' E 072°40'0 5.2
2018-Jun-22 20:00N 21°06' E 072°40'8273230886.2
2018-Jun-22 19:58N 32°01' W 081°01'827318072.9
2018-Jun-22 19:30N 21°06' E 072°40'0 9.4
2018-Jun-22 19:30N 21°06' E 072°40'827360784.3
2018-Jun-22 19:22N 32°01' W 081°01'827323507.6
2018-Jun-22 19:00N 21°06' E 072°40'072.0
2018-Jun-22 19:00N 21°06' E 072°40'8273177287.6
2018-Jun-22 18:58N 32°01' W 081°01'827418261.9
2018-Jun-22 18:30N 21°06' E 072°40'0403.7
2018-Jun-22 18:30N 21°06' E 072°40'8273175201.9
2018-Jun-22 18:27N 32°01' W 081°01'827418329.2
2018-Jun-22 18:00N 21°06' E 072°39'0558.1
2018-Jun-22 18:00N 21°06' E 072°40'827356091.0
2018-Jun-22 17:52N 32°01' W 081°01'827523530.1
2018-Jun-22 17:30N 21°04' E 072°40'2283.6
2018-Jun-22 17:30N 21°06' E 072°40'827358286.3
2018-Jun-22 17:21N 32°01' W 081°01'827523513.2
2018-Jun-22 17:00N 21°04' E 072°40'35151.6
2018-Jun-22 17:00N 21°06' E 072°40'8273175201.9
2018-Jun-22 16:58N 32°01' W 081°01'827518098.7
2018-Jun-22 16:30N 21°04' E 072°40'33096.1
2018-Jun-22 16:30N 21°06' E 072°40'827358172.5
2018-Jun-22 16:21N 32°01' W 081°01'827423545.5
2018-Jun-22 16:00N 21°06' E 072°39'0418.6
2018-Jun-22 16:00N 21°06' E 072°40'827356303.1
2018-Jun-22 15:52N 32°01' W 081°01'827323433.8
2018-Jun-22 15:30N 21°06' E 072°40'098.5
2018-Jun-22 15:30N 21°06' E 072°39'8274195954.2
2018-Jun-22 15:28N 32°01' W 081°01'827318295.0
2018-Jun-22 15:00N 21°06' E 072°40'065.1
2018-Jun-22 15:00N 21°06' E 072°40'827356196.8
2018-Jun-22 14:52N 32°01' W 081°01'827323452.2
2018-Jun-22 14:30N 21°06' E 072°40'0 5.3
2018-Jun-22 14:30N 21°06' E 072°40'8273227360.3
2018-Jun-22 14:28N 32°01' W 081°01'827318295.0
2018-Jun-22 14:00N 21°06' E 072°40'054.2
2018-Jun-22 14:00N 21°06' E 072°40'827356196.8
2018-Jun-22 13:52N 32°01' W 081°01'827323452.2
2018-Jun-22 13:30N 21°06' E 072°40'012.8
2018-Jun-22 13:30N 21°06' E 072°40'8273193403.9
2018-Jun-22 13:27N 32°01' W 081°01'827318317.5
2018-Jun-22 13:00N 21°06' E 072°40'0 8.9
2018-Jun-22 13:00N 21°06' E 072°40'827358172.5
2018-Jun-22 12:51N 32°01' W 081°01'827323106.5
2018-Jun-22 12:30N 21°06' E 072°40'012.9
2018-Jun-22 12:30N 21°06' E 072°40'8273225638.0
2018-Jun-22 12:28N 32°01' W 081°01'827318295.0
2018-Jun-22 12:00N 21°06' E 072°40'072.3
2018-Jun-22 12:00N 21°06' E 072°40'8273176238.5
2018-Jun-22 11:58N 32°01' W 081°01'827318272.6
2018-Jun-22 11:30N 21°06' E 072°40'0 5.6
2018-Jun-22 11:30N 21°06' E 072°40'827360660.3
2018-Jun-22 11:22N 32°01' W 081°01'827323489.1
2018-Jun-22 11:00N 21°06' E 072°40'054.2
2018-Jun-22 11:00N 21°06' E 072°40'827356303.0
2018-Jun-22 10:52N 32°01' W 081°01'827323489.2
2018-Jun-22 10:30N 21°06' E 072°40'011.4
2018-Jun-22 10:30N 21°06' E 072°40'8273194667.9
2018-Jun-22 10:28N 32°01' W 081°01'827318283.8
2018-Jun-22 10:00N 21°06' E 072°40'012.8
2018-Jun-22 10:00N 21°06' E 072°40'8273192156.0
2018-Jun-22 09:57N 32°01' W 081°01'827318328.7
2018-Jun-22 09:30N 21°06' E 072°40'0 2.1
2018-Jun-22 09:29N 21°06' E 072°40'827369265.8
2018-Jun-22 09:22N 32°01' W 081°01'827323526.2
2018-Jun-22 09:00N 21°06' E 072°40'0 8.1
2018-Jun-22 09:00N 21°06' E 072°40'8273201245.2
2018-Jun-22 08:58N 32°01' W 081°01'827318295.0
2018-Jun-22 08:30N 21°06' E 072°40'054.9
2018-Jun-22 08:30N 21°06' E 072°40'8273175201.9
2018-Jun-22 08:28N 32°01' W 081°01'827318272.6
2018-Jun-22 08:00N 21°06' E 072°40'0 6.0
2018-Jun-22 08:00N 21°06' E 072°40'827334876.1
2018-Jun-22 07:46N 32°01' W 081°01'827332730.0
2018-Jun-22 07:30N 21°06' E 072°40'0 3.9
2018-Jun-22 07:29N 21°06' E 072°40'827362703.5
2018-Jun-22 07:21N 32°01' W 081°01'827323526.2
2018-Jun-22 07:00N 21°06' E 072°40'0109.9
2018-Jun-22 07:00N 21°06' E 072°40'8273174177.2
2018-Jun-22 06:58N 32°01' W 081°01'827317644.7
2018-Jun-22 06:29N 21°06' E 072°40'0 3.6
2018-Jun-22 06:28N 21°06' E 072°40'8273572775.4
2018-Jun-22 06:27N 32°01' W 081°01'827318317.5
2018-Jun-22 06:00N 21°06' E 072°40'0109.9
2018-Jun-22 06:00N 21°06' E 072°40'8273174177.4
2018-Jun-22 05:58N 32°01' W 081°01'827318306.2
2018-Jun-22 05:30N 21°06' E 072°40'0 3.5
2018-Jun-22 05:29N 21°06' E 072°40'827363506.0
2018-Jun-22 05:22N 32°01' W 081°01'827323507.7
2018-Jun-22 05:00N 21°06' E 072°40'054.9
2018-Jun-22 05:00N 21°06' E 072°40'827356091.0
2018-Jun-22 04:51N 32°01' W 081°01'827323470.7
2018-Jun-22 04:30N 21°06' E 072°40'013.7
2018-Jun-22 04:30N 21°06' E 072°40'8273194668.0
2018-Jun-22 04:28N 32°01' W 081°01'827318283.7
2018-Jun-22 04:00N 21°06' E 072°40'0219.7
2018-Jun-22 04:00N 21°06' E 072°40'8273174177.4
2018-Jun-22 03:58N 32°01' W 081°01'827318317.5
2018-Jun-22 03:30N 21°06' E 072°40'065.1
2018-Jun-22 03:30N 21°06' E 072°40'827333390.5
2018-Jun-22 03:15N 32°01' W 081°01'827332802.1
2018-Jun-22 03:00N 21°06' E 072°40'010.4
2018-Jun-22 03:00N 21°06' E 072°40'8273195948.8
2018-Jun-22 02:58N 32°01' W 081°01'827318272.6
2018-Jun-22 02:30N 21°06' E 072°40'0 3.8
2018-Jun-22 02:29N 21°06' E 072°40'827335927.9
2018-Jun-22 02:16N 32°01' W 081°01'827332658.2
2018-Jun-22 02:00N 21°06' E 072°40'012.9
2018-Jun-22 02:00N 21°06' E 072°40'827318673.5
2018-Jun-22 01:33N 32°01' W 081°01'8273159273.7
2018-Jun-22 01:30N 21°06' E 072°40'010.5
2018-Jun-22 01:30N 21°06' E 072°40'8273197247.0
2018-Jun-22 01:28N 32°01' W 081°01'827318272.6
2018-Jun-22 01:00N 21°06' E 072°40'0 1.9
2018-Jun-22 00:58N 21°06' E 072°40'0 0.0
2018-Jun-22 00:30N 21°06' E 072°40'0 1.3
2018-Jun-22 00:28N 21°06' E 072°40'82732978434.0
2018-Jun-22 00:28N 32°01' W 081°01'827318283.8
2018-Jun-22 00:00N 21°06' E 072°40'0 2.8
2018-Jun-21 23:59N 21°06' E 072°40'827365604.0
2018-Jun-21 23:51N 32°01' W 081°01'827323489.2
2018-Jun-21 23:30N 21°06' E 072°40'012.8
2018-Jun-21 23:30N 21°06' E 072°40'8273193403.9
2018-Jun-21 23:28N 32°01' W 081°01'827318295.0
2018-Jun-21 23:00N 21°06' E 072°40'0238.5
2018-Jun-21 23:00N 21°06' E 072°40'827356409.7
2018-Jun-21 22:52N 32°01' W 081°01'827323452.1
2018-Jun-21 22:30N 21°06' E 072°40'079.5
2018-Jun-21 22:30N 21°06' E 072°40'8273176238.6
2018-Jun-21 22:28N 32°01' W 081°01'827318283.7
2018-Jun-21 22:00N 21°06' E 072°40'0119.2
2018-Jun-21 22:00N 21°06' E 072°40'827333465.5
2018-Jun-21 21:46N 32°01' W 081°01'827332874.4
2018-Jun-21 21:30N 21°06' E 072°40'0 9.9
2018-Jun-21 21:30N 21°06' E 072°40'8273197247.3
2018-Jun-21 21:27N 32°01' W 081°01'827318317.5
2018-Jun-21 21:00N 21°06' E 072°40'079.5
2018-Jun-21 21:00N 21°06' E 072°40'8273174177.3
2018-Jun-21 20:57N 32°01' W 081°01'827318295.0
2018-Jun-21 20:30N 21°06' E 072°40'014.9
2018-Jun-21 20:30N 21°06' E 072°40'827334117.0
2018-Jun-21 20:16N 32°01' W 081°01'827332765.9
2018-Jun-21 20:00N 21°06' E 072°40'010.8
2018-Jun-21 20:00N 21°06' E 072°40'8273195949.5
2018-Jun-21 19:57N 32°01' W 081°01'827318328.7
2018-Jun-21 19:30N 21°06' E 072°40'0 9.6
2018-Jun-21 19:30N 21°06' E 072°40'827358746.2
2018-Jun-21 19:22N 32°01' W 081°01'827323415.2
2018-Jun-21 19:00N 21°06' E 072°40'021.0
2018-Jun-21 19:00N 21°06' E 072°40'827382505.0
2018-Jun-21 18:54N 32°01' W 081°01'827421034.5
2018-Jun-21 18:30N 21°06' E 072°40'0305.3
2018-Jun-21 18:30N 21°06' E 072°40'0 0.7
2018-Jun-21 18:00N 21°06' E 072°40'0306.5
2018-Jun-21 18:00N 21°06' E 072°40'827517259.0
2018-Jun-21 17:32N 32°02' W 081°03'8275419571.7
2018-Jun-21 17:30N 21°06' E 072°40'0623.4
2018-Jun-21 17:30N 21°06' E 072°40'827521262.7
2018-Jun-21 17:07N 32°02' W 081°03'827575226.2
2018-Jun-21 17:00N 21°06' E 072°40'0311.7
2018-Jun-21 17:00N 21°06' E 072°40'82741654882.5
2018-Jun-21 17:00N 32°01' W 081°02'827516735.1
2018-Jun-21 16:30N 21°06' E 072°40'0644.4
2018-Jun-21 16:30N 21°06' E 072°40'0 0.7
2018-Jun-21 16:00N 21°06' E 072°40'0315.8
2018-Jun-21 16:00N 21°06' E 072°40'0 0.7
2018-Jun-21 15:30N 21°06' E 072°40'0631.6
2018-Jun-21 15:30N 21°06' E 072°40'0 0.2
2018-Jun-21 15:00N 21°06' E 072°40'077.1
2018-Jun-21 15:00N 21°06' E 072°40'0 0.1
2018-Jun-21 14:30N 21°06' E 072°40'076.3
2018-Jun-21 14:30N 21°06' E 072°40'0 0.1
2018-Jun-21 14:00N 21°06' E 072°40'0 7.9
2018-Jun-21 14:00N 21°06' E 072°40'0 0.1
2018-Jun-21 13:30N 21°06' E 072°40'0 3.1
2018-Jun-21 13:30N 21°06' E 072°40'0 0.1
2018-Jun-21 13:00N 21°06' E 072°40'087.0
2018-Jun-21 13:00N 21°06' E 072°40'0 0.1
2018-Jun-21 12:30N 21°06' E 072°40'0 0.5
2018-Jun-21 12:25N 21°06' E 072°40'0 0.1
2018-Jun-21 12:00N 21°06' E 072°40'0 3.5
2018-Jun-21 12:00N 21°06' E 072°40'0 0.1
2018-Jun-21 11:30N 21°06' E 072°40'0 1.1
2018-Jun-21 11:28N 21°06' E 072°40'0 0.0
2018-Jun-21 11:00N 21°06' E 072°40'0 8.5
2018-Jun-21 11:00N 21°06' E 072°40'0 0.0
2018-Jun-21 10:30N 21°06' E 072°40'0 4.0
2018-Jun-21 10:30N 21°06' E 072°40'0 0.0
2018-Jun-21 10:00N 21°06' E 072°40'087.0
2018-Jun-21 10:00N 21°06' E 072°40'0 0.1
2018-Jun-21 09:30N 21°06' E 072°40'086.4
2018-Jun-21 09:30N 21°06' E 072°40'0 0.1
2018-Jun-21 09:00N 21°06' E 072°40'052.2
2018-Jun-21 09:00N 21°06' E 072°40'0 0.1
2018-Jun-21 08:30N 21°06' E 072°40'075.6
2018-Jun-21 08:30N 21°06' E 072°40'0 0.0
2018-Jun-21 08:00N 21°06' E 072°40'0 9.2
2018-Jun-21 08:00N 21°06' E 072°40'0 0.0
2018-Jun-21 07:30N 21°06' E 072°40'0 7.9
2018-Jun-21 07:30N 21°06' E 072°40'0 0.0
2018-Jun-21 07:00N 21°06' E 072°40'0 8.5
2018-Jun-21 07:00N 21°06' E 072°40'0 0.1
2018-Jun-21 06:30N 21°06' E 072°40'0 6.5
2018-Jun-21 06:30N 21°06' E 072°40'0 0.0
2018-Jun-21 06:00N 21°06' E 072°40'066.5
2018-Jun-21 06:00N 21°06' E 072°40'0 0.1
2018-Jun-21 05:30N 21°06' E 072°40'0266.2
2018-Jun-21 05:30N 21°06' E 072°40'0 0.1
2018-Jun-21 05:00N 21°06' E 072°40'024.0
2018-Jun-21 05:00N 21°06' E 072°40'0 0.3
2018-Jun-21 04:30N 21°06' E 072°40'028.0
2018-Jun-21 04:30N 21°06' E 072°40'0 0.0
2018-Jun-21 04:00N 21°06' E 072°40'0156.5
2018-Jun-21 04:00N 21°06' E 072°40'0 0.0
2018-Jun-21 03:30N 21°06' E 072°40'018.4
2018-Jun-21 03:30N 21°06' E 072°40'0 0.0
2018-Jun-21 03:00N 21°06' E 072°40'077.1
2018-Jun-21 03:00N 21°06' E 072°40'0 0.2
2018-Jun-21 02:29N 21°06' E 072°40'0146.1
2018-Jun-21 02:29N 21°06' E 072°40'0 0.2
2018-Jun-21 02:00N 21°06' E 072°40'097.7
2018-Jun-21 02:00N 21°06' E 072°40'0 0.0
2018-Jun-21 01:30N 21°06' E 072°40'0 1.2
2018-Jun-21 01:27N 21°06' E 072°40'0 0.1
2018-Jun-21 01:00N 21°06' E 072°40'0 0.5
2018-Jun-21 00:53N 21°06' E 072°40'0 0.0
2018-Jun-21 00:30N 21°06' E 072°40'010.3
2018-Jun-21 00:30N 21°06' E 072°40'0 0.1
2018-Jun-21 00:00N 21°06' E 072°40'054.2
2018-Jun-21 00:00N 21°06' E 072°40'0 0.1
2018-Jun-20 23:30N 21°06' E 072°40'0 3.4
2018-Jun-20 23:29N 21°06' E 072°40'0 0.0
2018-Jun-20 23:00N 21°06' E 072°40'0 2.2
2018-Jun-20 22:58N 21°06' E 072°40'0 0.0
2018-Jun-20 22:30N 21°06' E 072°40'0119.2
2018-Jun-20 22:30N 21°06' E 072°40'0 0.1
2018-Jun-20 22:00N 21°06' E 072°40'0118.8
2018-Jun-20 22:00N 21°06' E 072°40'0 0.1
2018-Jun-20 21:30N 21°06' E 072°40'059.6
2018-Jun-20 21:30N 21°06' E 072°40'0 0.0
2018-Jun-20 21:00N 21°06' E 072°40'0 5.7
2018-Jun-20 20:59N 21°06' E 072°40'0 0.0
2018-Jun-20 20:30N 21°06' E 072°40'0118.8
2018-Jun-20 20:30N 21°06' E 072°40'0 0.1
2018-Jun-20 20:00N 21°06' E 072°40'086.4
2018-Jun-20 20:00N 21°06' E 072°40'0 0.1
2018-Jun-20 19:30N 21°06' E 072°40'010.8
2018-Jun-20 19:30N 21°06' E 072°40'0 0.1
2018-Jun-20 19:00N 21°06' E 072°40'0 5.4
2018-Jun-20 19:00N 21°06' E 072°40'0 0.0
2018-Jun-20 18:30N 21°06' E 072°40'013.2
2018-Jun-20 18:30N 21°06' E 072°40'0 0.0
2018-Jun-20 18:00N 21°06' E 072°40'0108.5
2018-Jun-20 18:00N 21°06' E 072°40'0 0.1
2018-Jun-20 17:30N 21°06' E 072°40'011.4
2018-Jun-20 17:30N 21°06' E 072°40'0 0.1
2018-Jun-20 17:00N 21°06' E 072°40'072.3
2018-Jun-20 17:00N 21°06' E 072°40'0 0.1
2018-Jun-20 16:30N 21°06' E 072°40'0108.5
2018-Jun-20 16:30N 21°06' E 072°40'0 0.1
2018-Jun-20 16:00N 21°06' E 072°40'0216.9
2018-Jun-20 16:00N 21°06' E 072°40'0 0.0
2018-Jun-20 15:30N 21°06' E 072°40'0 0.5
2018-Jun-20 15:23N 21°06' E 072°40'0 0.0
2018-Jun-20 15:00N 21°06' E 072°40'054.0
2018-Jun-20 15:00N 21°06' E 072°40'0 0.1
2018-Jun-20 14:30N 21°06' E 072°40'0 2.6
2018-Jun-20 14:29N 21°06' E 072°40'0 0.1
2018-Jun-20 14:00N 21°06' E 072°40'0 5.3
2018-Jun-20 14:00N 21°06' E 072°40'0 0.5
2018-Jun-20 13:30N 21°06' E 072°40'043.9
2018-Jun-20 13:30N 21°06' E 072°40'0 0.4
2018-Jun-20 13:00N 21°06' E 072°40'0 9.5
2018-Jun-20 12:59N 21°06' E 072°40'0 0.2
2018-Jun-20 12:30N 21°06' E 072°40'010.7
2018-Jun-20 12:30N 21°06' E 072°40'0 0.2
2018-Jun-20 12:00N 21°06' E 072°40'023.8
2018-Jun-20 12:00N 21°06' E 072°40'0 0.0
2018-Jun-20 11:30N 21°06' E 072°40'0177.4
2018-Jun-20 11:30N 21°06' E 072°40'0 0.4
2018-Jun-20 11:00N 21°06' E 072°40'0 1.8
2018-Jun-20 10:58N 21°06' E 072°40'0 0.0
2018-Jun-20 10:30N 21°06' E 072°40'065.1
2018-Jun-20 10:30N 21°06' E 072°40'0 0.1
2018-Jun-20 10:00N 21°06' E 072°40'054.0
2018-Jun-20 10:00N 21°06' E 072°40'0 0.1
2018-Jun-20 09:30N 21°06' E 072°40'072.0
2018-Jun-20 09:30N 21°06' E 072°40'0 0.1
2018-Jun-20 09:00N 21°06' E 072°40'0216.0
2018-Jun-20 09:00N 21°06' E 072°40'0 0.1
2018-Jun-20 08:30N 21°06' E 072°40'0108.0
2018-Jun-20 08:30N 21°06' E 072°40'0 0.1
2018-Jun-20 08:00N 21°06' E 072°40'079.5
2018-Jun-20 08:00N 21°06' E 072°40'0 0.0
2018-Jun-20 07:30N 21°06' E 072°40'0 2.0
2018-Jun-20 07:28N 21°06' E 072°40'0 0.1
2018-Jun-20 07:00N 21°06' E 072°40'0 6.6
2018-Jun-20 07:00N 21°06' E 072°40'0 0.0
2018-Jun-20 06:29N 21°06' E 072°40'059.4
2018-Jun-20 06:29N 21°06' E 072°40'0 0.0
2018-Jun-20 06:00N 21°06' E 072°40'0 6.3
2018-Jun-20 06:00N 21°06' E 072°40'0 0.1
2018-Jun-20 05:30N 21°06' E 072°40'0 2.9
2018-Jun-20 05:29N 21°06' E 072°40'0 0.0
2018-Jun-20 05:00N 21°06' E 072°40'079.5
2018-Jun-20 05:00N 21°06' E 072°40'0 0.1
2018-Jun-20 04:30N 21°06' E 072°40'0497.2
2018-Jun-20 04:30N 21°07' E 072°40'0 0.0
2018-Jun-20 04:00N 21°07' E 072°40'0 7.3
2018-Jun-20 03:59N 21°06' E 072°40'0 0.3
2018-Jun-20 03:30N 21°06' E 072°40'0 1.9
2018-Jun-20 03:26N 21°06' E 072°40'0 0.0
2018-Jun-20 03:00N 21°06' E 072°40'010.4
2018-Jun-20 03:00N 21°06' E 072°40'0 0.1
2018-Jun-20 02:30N 21°06' E 072°40'0216.9
2018-Jun-20 02:30N 21°06' E 072°40'0 0.1
2018-Jun-20 02:00N 21°06' E 072°40'0195.4
2018-Jun-20 02:00N 21°06' E 072°40'0 0.0
2018-Jun-20 01:30N 21°06' E 072°40'012.8
2018-Jun-20 01:30N 21°06' E 072°40'0 0.1
2018-Jun-20 01:00N 21°06' E 072°40'0 9.8
2018-Jun-20 01:00N 21°06' E 072°40'0 0.0
2018-Jun-20 00:30N 21°06' E 072°40'0 2.6
2018-Jun-20 00:29N 21°06' E 072°40'0 0.0
2018-Jun-20 00:00N 21°06' E 072°40'0 1.7
2018-Jun-19 23:58N 21°06' E 072°40'0 0.0
2018-Jun-19 23:30N 21°06' E 072°40'097.2
2018-Jun-19 23:30N 21°06' E 072°40'0 0.0
2018-Jun-19 23:00N 21°06' E 072°40'012.7
2018-Jun-19 23:00N 21°06' E 072°40'0 0.0
2018-Jun-19 22:30N 21°06' E 072°40'0108.0
2018-Jun-19 22:30N 21°06' E 072°40'0 0.1
2018-Jun-19 22:00N 21°06' E 072°40'072.0
2018-Jun-19 22:00N 21°06' E 072°40'0 0.1
2018-Jun-19 21:30N 21°06' E 072°40'079.2
2018-Jun-19 21:30N 21°06' E 072°40'0 0.1
2018-Jun-19 21:00N 21°06' E 072°40'011.3
2018-Jun-19 21:00N 21°06' E 072°40'0 0.1
2018-Jun-19 20:30N 21°06' E 072°40'0 2.9
2018-Jun-19 20:29N 21°06' E 072°40'0 0.1
2018-Jun-19 20:00N 21°06' E 072°40'0118.8
2018-Jun-19 20:00N 21°06' E 072°40'0 0.1
2018-Jun-19 19:30N 21°06' E 072°40'0 5.7
2018-Jun-19 19:30N 21°06' E 072°40'0 0.1
2018-Jun-19 19:00N 21°06' E 072°40'010.3
2018-Jun-19 19:00N 21°06' E 072°40'0 0.1
2018-Jun-19 18:30N 21°06' E 072°40'0118.8
2018-Jun-19 18:30N 21°06' E 072°40'0 0.1
2018-Jun-19 18:00N 21°06' E 072°40'0237.6
2018-Jun-19 18:00N 21°06' E 072°40'0 0.1
2018-Jun-19 17:30N 21°06' E 072°40'079.2
2018-Jun-19 17:30N 21°06' E 072°40'0 0.1
2018-Jun-19 17:00N 21°06' E 072°40'0 9.4
2018-Jun-19 17:00N 21°06' E 072°40'0 0.1
2018-Jun-19 16:30N 21°06' E 072°40'054.2
2018-Jun-19 16:30N 21°06' E 072°40'0 0.1
2018-Jun-19 16:00N 21°06' E 072°40'0119.2
2018-Jun-19 16:00N 21°06' E 072°40'0 0.1
2018-Jun-19 15:30N 21°06' E 072°40'0 9.9
2018-Jun-19 15:30N 21°06' E 072°40'0 0.0
2018-Jun-19 15:00N 21°06' E 072°40'0 4.2
2018-Jun-19 14:59N 21°06' E 072°40'0 0.0
2018-Jun-19 14:30N 21°06' E 072°40'065.1
2018-Jun-19 14:30N 21°06' E 072°40'0 0.1
2018-Jun-19 14:00N 21°06' E 072°40'1114.7
2018-Jun-19 14:00N 21°07' E 072°40'0 0.6
2018-Jun-19 13:30N 21°07' E 072°40'1103.8
2018-Jun-19 13:30N 21°06' E 072°40'1 1.2
2018-Jun-19 13:00N 21°07' E 072°40'127.3
2018-Jun-19 12:59N 21°06' E 072°40'0 0.4
2018-Jun-19 12:30N 21°06' E 072°40'122.2
2018-Jun-19 12:28N 21°07' E 072°40'1 1.5
2018-Jun-19 12:00N 21°06' E 072°40'121.2
2018-Jun-19 11:58N 21°07' E 072°40'1 1.6
2018-Jun-19 11:30N 21°06' E 072°40'0 7.6
2018-Jun-19 11:30N 21°06' E 072°40'0 0.1
2018-Jun-19 11:00N 21°06' E 072°40'0 5.4
2018-Jun-19 11:00N 21°06' E 072°40'0 0.0
2018-Jun-19 10:30N 21°06' E 072°40'0112.2
2018-Jun-19 10:30N 21°06' E 072°40'0 0.1
2018-Jun-19 10:00N 21°06' E 072°40'067.9
2018-Jun-19 10:00N 21°06' E 072°40'0 0.1
2018-Jun-19 09:30N 21°06' E 072°40'0 5.1
2018-Jun-19 09:29N 21°06' E 072°40'0 0.1
2018-Jun-19 09:00N 21°06' E 072°40'073.2
2018-Jun-19 09:00N 21°06' E 072°40'0 0.1
2018-Jun-19 08:30N 21°06' E 072°40'0 1.1
2018-Jun-19 08:27N 21°06' E 072°40'0 0.0
2018-Jun-19 08:00N 21°06' E 072°40'0 3.9
2018-Jun-19 07:59N 21°06' E 072°40'0 0.0
2018-Jun-19 07:30N 21°06' E 072°40'0 2.2
2018-Jun-19 07:29N 21°06' E 072°40'0 0.1
2018-Jun-19 07:00N 21°06' E 072°40'073.2
2018-Jun-19 07:00N 21°06' E 072°40'0 0.1
2018-Jun-19 06:30N 21°06' E 072°40'0108.5
2018-Jun-19 06:30N 21°06' E 072°40'0 0.1
2018-Jun-19 06:00N 21°06' E 072°40'0109.9
2018-Jun-19 06:00N 21°06' E 072°40'0 0.0
2018-Jun-19 05:30N 21°06' E 072°40'0 5.9
2018-Jun-19 05:30N 21°06' E 072°40'0 0.0
2018-Jun-19 05:00N 21°06' E 072°40'0 2.7
2018-Jun-19 04:59N 21°06' E 072°40'0 0.2
2018-Jun-19 04:30N 21°07' E 072°40'013.3
2018-Jun-19 04:30N 21°06' E 072°40'0 0.0
2018-Jun-19 04:00N 21°06' E 072°40'073.2
2018-Jun-19 04:00N 21°06' E 072°40'0 0.1
2018-Jun-19 03:30N 21°06' E 072°40'0236.6
2018-Jun-19 03:30N 21°06' E 072°40'0 0.0
2018-Jun-19 03:00N 21°06' E 072°40'058.9
2018-Jun-19 03:00N 21°06' E 072°40'0 0.0
2018-Jun-19 02:30N 21°06' E 072°40'0308.4
2018-Jun-19 02:30N 21°06' E 072°40'0 0.5
2018-Jun-19 02:00N 21°06' E 072°40'0459.1
2018-Jun-19 02:00N 21°06' E 072°40'0 0.5
2018-Jun-19 01:30N 21°06' E 072°40'0459.1
2018-Jun-19 01:30N 21°06' E 072°40'0 0.5
2018-Jun-19 01:00N 21°06' E 072°40'0460.7
2018-Jun-19 01:00N 21°06' E 072°40'0 0.5
2018-Jun-19 00:30N 21°06' E 072°40'0 2.2
2018-Jun-19 00:29N 21°06' E 072°40'0 0.1
2018-Jun-19 00:00N 21°06' E 072°40'099.3
2018-Jun-19 00:00N 21°06' E 072°40'0 0.1
2018-Jun-18 23:30N 21°06' E 072°40'0 9.0
2018-Jun-18 23:30N 21°06' E 072°40'0 0.1
2018-Jun-18 23:00N 21°06' E 072°40'0 4.8
2018-Jun-18 23:00N 21°06' E 072°40'0 0.1
2018-Jun-18 22:30N 21°06' E 072°40'0 4.6
2018-Jun-18 22:30N 21°06' E 072°40'0 0.1
2018-Jun-18 22:00N 21°06' E 072°40'010.7
2018-Jun-18 22:00N 21°06' E 072°40'0 0.1
2018-Jun-18 21:30N 21°06' E 072°40'074.8
2018-Jun-18 21:30N 21°06' E 072°40'0 0.0
2018-Jun-18 21:00N 21°06' E 072°40'0 2.3
2018-Jun-18 20:59N 21°06' E 072°40'0 0.0
2018-Jun-18 20:30N 21°06' E 072°40'073.2
2018-Jun-18 20:30N 21°06' E 072°40'0 0.1
2018-Jun-18 20:00N 21°06' E 072°40'0109.9
2018-Jun-18 20:00N 21°06' E 072°40'0 0.0
2018-Jun-18 19:30N 21°06' E 072°40'0 3.9
2018-Jun-18 19:29N 21°06' E 072°40'0 0.0
2018-Jun-18 19:00N 21°06' E 072°40'073.2
2018-Jun-18 19:00N 21°06' E 072°40'0 0.1
2018-Jun-18 18:30N 21°06' E 072°40'074.8
2018-Jun-18 18:30N 21°06' E 072°40'0 0.0
2018-Jun-18 18:00N 21°06' E 072°40'0 1.1
2018-Jun-18 17:57N 21°06' E 072°40'0 0.0
2018-Jun-18 17:30N 21°06' E 072°40'074.8
2018-Jun-18 17:30N 21°06' E 072°40'0 0.1
2018-Jun-18 17:00N 21°06' E 072°40'074.8
2018-Jun-18 17:00N 21°06' E 072°40'0 0.1
2018-Jun-18 16:30N 21°06' E 072°40'074.8
2018-Jun-18 16:30N 21°06' E 072°40'0 0.1
2018-Jun-18 16:00N 21°06' E 072°40'099.3
2018-Jun-18 16:00N 21°06' E 072°40'0 0.1
2018-Jun-18 15:30N 21°06' E 072°40'066.2
2018-Jun-18 15:30N 21°06' E 072°40'0 0.1
2018-Jun-18 15:00N 21°06' E 072°40'074.8
2018-Jun-18 15:00N 21°06' E 072°40'0 0.1
2018-Jun-18 14:30N 21°06' E 072°40'0 3.4
2018-Jun-18 14:29N 21°06' E 072°40'0 0.0
2018-Jun-18 14:00N 21°06' E 072°40'0 3.9
2018-Jun-18 13:59N 21°06' E 072°40'0 0.0
2018-Jun-18 13:30N 21°06' E 072°40'0 5.2
2018-Jun-18 13:29N 21°06' E 072°40'0 0.1
2018-Jun-18 13:00N 21°06' E 072°40'0270.2
2018-Jun-18 13:00N 21°07' E 072°40'0 0.3
2018-Jun-18 12:30N 21°06' E 072°40'12208.4
2018-Jun-18 12:30N 21°08' E 072°40'1 2.5
2018-Jun-18 12:00N 21°06' E 072°40'3409.7
2018-Jun-18 12:00N 21°09' E 072°40'3 5.3
2018-Jun-18 11:30N 21°06' E 072°40'33148.5
2018-Jun-18 11:30N 21°09' E 072°40'3 5.3
2018-Jun-18 11:00N 21°06' E 072°40'33200.9
2018-Jun-18 11:00N 21°09' E 072°40'1 2.7
2018-Jun-18 10:30N 21°08' E 072°40'114.6
2018-Jun-18 10:25N 21°06' E 072°40'0 0.0
2018-Jun-18 10:00N 21°06' E 072°40'011.4
2018-Jun-18 10:00N 21°06' E 072°40'0 0.0
2018-Jun-18 09:30N 21°06' E 072°40'0 6.6
2018-Jun-18 09:29N 21°06' E 072°40'0 0.0
2018-Jun-18 09:00N 21°06' E 072°40'0 6.0
2018-Jun-18 08:59N 21°06' E 072°40'0 0.1
2018-Jun-18 08:30N 21°06' E 072°40'012.3
2018-Jun-18 08:30N 21°06' E 072°40'0 0.1
2018-Jun-18 08:00N 21°06' E 072°40'0135.7
2018-Jun-18 08:00N 21°06' E 072°40'0 0.2
2018-Jun-18 07:30N 21°06' E 072°40'083.6
2018-Jun-18 07:30N 21°06' E 072°40'  
Track history (hours):
 
Tides and Currents Weather Stations Pressure Air Temp Water Temp Dewpoint Dewpoint Depression Visibility Wind Speed Wind Dir Waves Ship Positions

ClaSS B

Last reported at 2018-Jun-23 00:00 UTC. Time now 2018-Jun-23 00:23 UTC.
Position N 21°06' E 072°40'.

Type: Pleasure craft. MMSI: 203888027.

Date/timePositionNaut miles runAvg speedWind from/ knotsBaromVisibWave heightAir tempDewpointWater temp
2018-Jun-23 00:00N 21°06' E 072°40'079.2
2018-Jun-23 00:00N 21°06' E 072°40'8273175202.0
2018-Jun-22 23:58N 32°01' W 081°01'827318306.2
2018-Jun-22 23:30N 21°06' E 072°40'0118.8
2018-Jun-22 23:30N 21°06' E 072°40'8273174177.3
2018-Jun-22 23:28N 32°01' W 081°01'827317665.6
2018-Jun-22 22:59N 21°06' E 072°40'0 5.5
2018-Jun-22 22:59N 21°06' E 072°40'8273431657.0
2018-Jun-22 22:58N 32°01' W 081°01'827318250.2
2018-Jun-22 22:30N 21°06' E 072°40'8273176238.7
2018-Jun-22 22:28N 32°01' W 081°01'8273278356.8
2018-Jun-22 22:26N 21°06' E 072°40'0 0.0
2018-Jun-22 22:00N 21°06' E 072°40'079.2
2018-Jun-22 22:00N 21°06' E 072°40'8273176238.7
2018-Jun-22 21:58N 32°01' W 081°01'827318295.0
2018-Jun-22 21:30N 21°06' E 072°40'0238.5
2018-Jun-22 21:30N 21°06' E 072°40'8273175202.0
2018-Jun-22 21:28N 32°01' W 081°01'827318306.2
2018-Jun-22 21:00N 21°06' E 072°40'059.6
2018-Jun-22 21:00N 21°06' E 072°40'827356196.8
2018-Jun-22 20:52N 32°01' W 081°01'827323526.2
2018-Jun-22 20:30N 21°06' E 072°40'0 5.4
2018-Jun-22 20:30N 21°06' E 072°40'8273229110.3
2018-Jun-22 20:28N 32°01' W 081°01'827318306.2
2018-Jun-22 20:00N 21°06' E 072°40'0 5.2
2018-Jun-22 20:00N 21°06' E 072°40'8273230886.2
2018-Jun-22 19:58N 32°01' W 081°01'827318072.9
2018-Jun-22 19:30N 21°06' E 072°40'0 9.4
2018-Jun-22 19:30N 21°06' E 072°40'827360784.3
2018-Jun-22 19:22N 32°01' W 081°01'827323507.6
2018-Jun-22 19:00N 21°06' E 072°40'072.0
2018-Jun-22 19:00N 21°06' E 072°40'8273177287.6
2018-Jun-22 18:58N 32°01' W 081°01'827418261.9
2018-Jun-22 18:30N 21°06' E 072°40'0403.7
2018-Jun-22 18:30N 21°06' E 072°40'8273175201.9
2018-Jun-22 18:27N 32°01' W 081°01'827418329.2
2018-Jun-22 18:00N 21°06' E 072°39'0558.1
2018-Jun-22 18:00N 21°06' E 072°40'827356091.0
2018-Jun-22 17:52N 32°01' W 081°01'827523530.1
2018-Jun-22 17:30N 21°04' E 072°40'2283.6
2018-Jun-22 17:30N 21°06' E 072°40'827358286.3
2018-Jun-22 17:21N 32°01' W 081°01'827523513.2
2018-Jun-22 17:00N 21°04' E 072°40'35151.6
2018-Jun-22 17:00N 21°06' E 072°40'8273175201.9
2018-Jun-22 16:58N 32°01' W 081°01'827518098.7
2018-Jun-22 16:30N 21°04' E 072°40'33096.1
2018-Jun-22 16:30N 21°06' E 072°40'827358172.5
2018-Jun-22 16:21N 32°01' W 081°01'827423545.5
2018-Jun-22 16:00N 21°06' E 072°39'0418.6
2018-Jun-22 16:00N 21°06' E 072°40'827356303.1
2018-Jun-22 15:52N 32°01' W 081°01'827323433.8
2018-Jun-22 15:30N 21°06' E 072°40'098.5
2018-Jun-22 15:30N 21°06' E 072°39'8274195954.2
2018-Jun-22 15:28N 32°01' W 081°01'827318295.0
2018-Jun-22 15:00N 21°06' E 072°40'065.1
2018-Jun-22 15:00N 21°06' E 072°40'827356196.8
2018-Jun-22 14:52N 32°01' W 081°01'827323452.2
2018-Jun-22 14:30N 21°06' E 072°40'0 5.3
2018-Jun-22 14:30N 21°06' E 072°40'8273227360.3
2018-Jun-22 14:28N 32°01' W 081°01'827318295.0
2018-Jun-22 14:00N 21°06' E 072°40'054.2
2018-Jun-22 14:00N 21°06' E 072°40'827356196.8
2018-Jun-22 13:52N 32°01' W 081°01'827323452.2
2018-Jun-22 13:30N 21°06' E 072°40'012.8
2018-Jun-22 13:30N 21°06' E 072°40'8273193403.9
2018-Jun-22 13:27N 32°01' W 081°01'827318317.5
2018-Jun-22 13:00N 21°06' E 072°40'0 8.9
2018-Jun-22 13:00N 21°06' E 072°40'827358172.5
2018-Jun-22 12:51N 32°01' W 081°01'827323106.5
2018-Jun-22 12:30N 21°06' E 072°40'012.9
2018-Jun-22 12:30N 21°06' E 072°40'8273225638.0
2018-Jun-22 12:28N 32°01' W 081°01'827318295.0
2018-Jun-22 12:00N 21°06' E 072°40'072.3
2018-Jun-22 12:00N 21°06' E 072°40'8273176238.5
2018-Jun-22 11:58N 32°01' W 081°01'827318272.6
2018-Jun-22 11:30N 21°06' E 072°40'0 5.6
2018-Jun-22 11:30N 21°06' E 072°40'827360660.3
2018-Jun-22 11:22N 32°01' W 081°01'827323489.1
2018-Jun-22 11:00N 21°06' E 072°40'054.2
2018-Jun-22 11:00N 21°06' E 072°40'827356303.0
2018-Jun-22 10:52N 32°01' W 081°01'827323489.2
2018-Jun-22 10:30N 21°06' E 072°40'011.4
2018-Jun-22 10:30N 21°06' E 072°40'8273194667.9
2018-Jun-22 10:28N 32°01' W 081°01'827318283.8
2018-Jun-22 10:00N 21°06' E 072°40'012.8
2018-Jun-22 10:00N 21°06' E 072°40'8273192156.0
2018-Jun-22 09:57N 32°01' W 081°01'827318328.7
2018-Jun-22 09:30N 21°06' E 072°40'0 2.1
2018-Jun-22 09:29N 21°06' E 072°40'827369265.8
2018-Jun-22 09:22N 32°01' W 081°01'827323526.2
2018-Jun-22 09:00N 21°06' E 072°40'0 8.1
2018-Jun-22 09:00N 21°06' E 072°40'8273201245.2
2018-Jun-22 08:58N 32°01' W 081°01'827318295.0
2018-Jun-22 08:30N 21°06' E 072°40'054.9
2018-Jun-22 08:30N 21°06' E 072°40'8273175201.9
2018-Jun-22 08:28N 32°01' W 081°01'827318272.6
2018-Jun-22 08:00N 21°06' E 072°40'0 6.0
2018-Jun-22 08:00N 21°06' E 072°40'827334876.1
2018-Jun-22 07:46N 32°01' W 081°01'827332730.0
2018-Jun-22 07:30N 21°06' E 072°40'0 3.9
2018-Jun-22 07:29N 21°06' E 072°40'827362703.5
2018-Jun-22 07:21N 32°01' W 081°01'827323526.2
2018-Jun-22 07:00N 21°06' E 072°40'0109.9
2018-Jun-22 07:00N 21°06' E 072°40'8273174177.2
2018-Jun-22 06:58N 32°01' W 081°01'827317644.7
2018-Jun-22 06:29N 21°06' E 072°40'0 3.6
2018-Jun-22 06:28N 21°06' E 072°40'8273572775.4
2018-Jun-22 06:27N 32°01' W 081°01'827318317.5
2018-Jun-22 06:00N 21°06' E 072°40'0109.9
2018-Jun-22 06:00N 21°06' E 072°40'8273174177.4
2018-Jun-22 05:58N 32°01' W 081°01'827318306.2
2018-Jun-22 05:30N 21°06' E 072°40'0 3.5
2018-Jun-22 05:29N 21°06' E 072°40'827363506.0
2018-Jun-22 05:22N 32°01' W 081°01'827323507.7
2018-Jun-22 05:00N 21°06' E 072°40'054.9
2018-Jun-22 05:00N 21°06' E 072°40'827356091.0
2018-Jun-22 04:51N 32°01' W 081°01'827323470.7
2018-Jun-22 04:30N 21°06' E 072°40'013.7
2018-Jun-22 04:30N 21°06' E 072°40'8273194668.0
2018-Jun-22 04:28N 32°01' W 081°01'827318283.7
2018-Jun-22 04:00N 21°06' E 072°40'0219.7
2018-Jun-22 04:00N 21°06' E 072°40'8273174177.4
2018-Jun-22 03:58N 32°01' W 081°01'827318317.5
2018-Jun-22 03:30N 21°06' E 072°40'065.1
2018-Jun-22 03:30N 21°06' E 072°40'827333390.5
2018-Jun-22 03:15N 32°01' W 081°01'827332802.1
2018-Jun-22 03:00N 21°06' E 072°40'010.4
2018-Jun-22 03:00N 21°06' E 072°40'8273195948.8
2018-Jun-22 02:58N 32°01' W 081°01'827318272.6
2018-Jun-22 02:30N 21°06' E 072°40'0 3.8
2018-Jun-22 02:29N 21°06' E 072°40'827335927.9
2018-Jun-22 02:16N 32°01' W 081°01'827332658.2
2018-Jun-22 02:00N 21°06' E 072°40'012.9
2018-Jun-22 02:00N 21°06' E 072°40'827318673.5
2018-Jun-22 01:33N 32°01' W 081°01'8273159273.7
2018-Jun-22 01:30N 21°06' E 072°40'010.5
2018-Jun-22 01:30N 21°06' E 072°40'8273197247.0
2018-Jun-22 01:28N 32°01' W 081°01'827318272.6
2018-Jun-22 01:00N 21°06' E 072°40'0 1.9
2018-Jun-22 00:58N 21°06' E 072°40'0 0.0
2018-Jun-22 00:30N 21°06' E 072°40'0 1.3
2018-Jun-22 00:28N 21°06' E 072°40'82732978434.0
2018-Jun-22 00:28N 32°01' W 081°01'827318283.8
2018-Jun-22 00:00N 21°06' E 072°40'0 2.8
2018-Jun-21 23:59N 21°06' E 072°40'827365604.0
2018-Jun-21 23:51N 32°01' W 081°01'827323489.2
2018-Jun-21 23:30N 21°06' E 072°40'012.8
2018-Jun-21 23:30N 21°06' E 072°40'8273193403.9
2018-Jun-21 23:28N 32°01' W 081°01'827318295.0
2018-Jun-21 23:00N 21°06' E 072°40'0238.5
2018-Jun-21 23:00N 21°06' E 072°40'827356409.7
2018-Jun-21 22:52N 32°01' W 081°01'827323452.1
2018-Jun-21 22:30N 21°06' E 072°40'079.5
2018-Jun-21 22:30N 21°06' E 072°40'8273176238.6
2018-Jun-21 22:28N 32°01' W 081°01'827318283.7
2018-Jun-21 22:00N 21°06' E 072°40'0119.2
2018-Jun-21 22:00N 21°06' E 072°40'827333465.5
2018-Jun-21 21:46N 32°01' W 081°01'827332874.4
2018-Jun-21 21:30N 21°06' E 072°40'0 9.9
2018-Jun-21 21:30N 21°06' E 072°40'8273197247.3
2018-Jun-21 21:27N 32°01' W 081°01'827318317.5
2018-Jun-21 21:00N 21°06' E 072°40'079.5
2018-Jun-21 21:00N 21°06' E 072°40'8273174177.3
2018-Jun-21 20:57N 32°01' W 081°01'827318295.0
2018-Jun-21 20:30N 21°06' E 072°40'014.9
2018-Jun-21 20:30N 21°06' E 072°40'827334117.0
2018-Jun-21 20:16N 32°01' W 081°01'827332765.9
2018-Jun-21 20:00N 21°06' E 072°40'010.8
2018-Jun-21 20:00N 21°06' E 072°40'8273195949.5
2018-Jun-21 19:57N 32°01' W 081°01'827318328.7
2018-Jun-21 19:30N 21°06' E 072°40'0 9.6
2018-Jun-21 19:30N 21°06' E 072°40'827358746.2
2018-Jun-21 19:22N 32°01' W 081°01'827323415.2
2018-Jun-21 19:00N 21°06' E 072°40'021.0
2018-Jun-21 19:00N 21°06' E 072°40'827382505.0
2018-Jun-21 18:54N 32°01' W 081°01'827421034.5
2018-Jun-21 18:30N 21°06' E 072°40'0305.3
2018-Jun-21 18:30N 21°06' E 072°40'0 0.7
2018-Jun-21 18:00N 21°06' E 072°40'0306.5
2018-Jun-21 18:00N 21°06' E 072°40'827517259.0
2018-Jun-21 17:32N 32°02' W 081°03'8275419571.7
2018-Jun-21 17:30N 21°06' E 072°40'0623.4
2018-Jun-21 17:30N 21°06' E 072°40'827521262.7
2018-Jun-21 17:07N 32°02' W 081°03'827575226.2
2018-Jun-21 17:00N 21°06' E 072°40'0311.7
2018-Jun-21 17:00N 21°06' E 072°40'82741654882.5
2018-Jun-21 17:00N 32°01' W 081°02'827516735.1
2018-Jun-21 16:30N 21°06' E 072°40'0644.4
2018-Jun-21 16:30N 21°06' E 072°40'0 0.7
2018-Jun-21 16:00N 21°06' E 072°40'0315.8
2018-Jun-21 16:00N 21°06' E 072°40'0 0.7
2018-Jun-21 15:30N 21°06' E 072°40'0631.6
2018-Jun-21 15:30N 21°06' E 072°40'0 0.2
2018-Jun-21 15:00N 21°06' E 072°40'077.1
2018-Jun-21 15:00N 21°06' E 072°40'0 0.1
2018-Jun-21 14:30N 21°06' E 072°40'076.3
2018-Jun-21 14:30N 21°06' E 072°40'0 0.1
2018-Jun-21 14:00N 21°06' E 072°40'0 7.9
2018-Jun-21 14:00N 21°06' E 072°40'0 0.1
2018-Jun-21 13:30N 21°06' E 072°40'0 3.1
2018-Jun-21 13:30N 21°06' E 072°40'0 0.1
2018-Jun-21 13:00N 21°06' E 072°40'087.0
2018-Jun-21 13:00N 21°06' E 072°40'0 0.1
2018-Jun-21 12:30N 21°06' E 072°40'0 0.5
2018-Jun-21 12:25N 21°06' E 072°40'0 0.1
2018-Jun-21 12:00N 21°06' E 072°40'0 3.5
2018-Jun-21 12:00N 21°06' E 072°40'0 0.1
2018-Jun-21 11:30N 21°06' E 072°40'0 1.1
2018-Jun-21 11:28N 21°06' E 072°40'0 0.0
2018-Jun-21 11:00N 21°06' E 072°40'0 8.5
2018-Jun-21 11:00N 21°06' E 072°40'0 0.0
2018-Jun-21 10:30N 21°06' E 072°40'0 4.0
2018-Jun-21 10:30N 21°06' E 072°40'0 0.0
2018-Jun-21 10:00N 21°06' E 072°40'087.0
2018-Jun-21 10:00N 21°06' E 072°40'0 0.1
2018-Jun-21 09:30N 21°06' E 072°40'086.4
2018-Jun-21 09:30N 21°06' E 072°40'0 0.1
2018-Jun-21 09:00N 21°06' E 072°40'052.2
2018-Jun-21 09:00N 21°06' E 072°40'0 0.1
2018-Jun-21 08:30N 21°06' E 072°40'075.6
2018-Jun-21 08:30N 21°06' E 072°40'0 0.0
2018-Jun-21 08:00N 21°06' E 072°40'0 9.2
2018-Jun-21 08:00N 21°06' E 072°40'0 0.0
2018-Jun-21 07:30N 21°06' E 072°40'0 7.9
2018-Jun-21 07:30N 21°06' E 072°40'0 0.0
2018-Jun-21 07:00N 21°06' E 072°40'0 8.5
2018-Jun-21 07:00N 21°06' E 072°40'0 0.1
2018-Jun-21 06:30N 21°06' E 072°40'0 6.5
2018-Jun-21 06:30N 21°06' E 072°40'0 0.0
2018-Jun-21 06:00N 21°06' E 072°40'066.5
2018-Jun-21 06:00N 21°06' E 072°40'0 0.1
2018-Jun-21 05:30N 21°06' E 072°40'0266.2
2018-Jun-21 05:30N 21°06' E 072°40'0 0.1
2018-Jun-21 05:00N 21°06' E 072°40'024.0
2018-Jun-21 05:00N 21°06' E 072°40'0 0.3
2018-Jun-21 04:30N 21°06' E 072°40'028.0
2018-Jun-21 04:30N 21°06' E 072°40'0 0.0
2018-Jun-21 04:00N 21°06' E 072°40'0156.5
2018-Jun-21 04:00N 21°06' E 072°40'0 0.0
2018-Jun-21 03:30N 21°06' E 072°40'018.4
2018-Jun-21 03:30N 21°06' E 072°40'0 0.0
2018-Jun-21 03:00N 21°06' E 072°40'077.1
2018-Jun-21 03:00N 21°06' E 072°40'0 0.2
2018-Jun-21 02:29N 21°06' E 072°40'0146.1
2018-Jun-21 02:29N 21°06' E 072°40'0 0.2
2018-Jun-21 02:00N 21°06' E 072°40'097.7
2018-Jun-21 02:00N 21°06' E 072°40'0 0.0
2018-Jun-21 01:30N 21°06' E 072°40'0 1.2
2018-Jun-21 01:27N 21°06' E 072°40'0 0.1
2018-Jun-21 01:00N 21°06' E 072°40'0 0.5
2018-Jun-21 00:53N 21°06' E 072°40'0 0.0
2018-Jun-21 00:30N 21°06' E 072°40'010.3
2018-Jun-21 00:30N 21°06' E 072°40'0 0.1
2018-Jun-21 00:00N 21°06' E 072°40'054.2
2018-Jun-21 00:00N 21°06' E 072°40'0 0.1
2018-Jun-20 23:30N 21°06' E 072°40'0 3.4
2018-Jun-20 23:29N 21°06' E 072°40'0 0.0
2018-Jun-20 23:00N 21°06' E 072°40'0 2.2
2018-Jun-20 22:58N 21°06' E 072°40'0 0.0
2018-Jun-20 22:30N 21°06' E 072°40'0119.2
2018-Jun-20 22:30N 21°06' E 072°40'0 0.1
2018-Jun-20 22:00N 21°06' E 072°40'0118.8
2018-Jun-20 22:00N 21°06' E 072°40'0 0.1
2018-Jun-20 21:30N 21°06' E 072°40'059.6
2018-Jun-20 21:30N 21°06' E 072°40'0 0.0
2018-Jun-20 21:00N 21°06' E 072°40'0 5.7
2018-Jun-20 20:59N 21°06' E 072°40'0 0.0
2018-Jun-20 20:30N 21°06' E 072°40'0118.8
2018-Jun-20 20:30N 21°06' E 072°40'0 0.1
2018-Jun-20 20:00N 21°06' E 072°40'086.4
2018-Jun-20 20:00N 21°06' E 072°40'0 0.1
2018-Jun-20 19:30N 21°06' E 072°40'010.8
2018-Jun-20 19:30N 21°06' E 072°40'0 0.1
2018-Jun-20 19:00N 21°06' E 072°40'0 5.4
2018-Jun-20 19:00N 21°06' E 072°40'0 0.0
2018-Jun-20 18:30N 21°06' E 072°40'013.2
2018-Jun-20 18:30N 21°06' E 072°40'0 0.0
2018-Jun-20 18:00N 21°06' E 072°40'0108.5
2018-Jun-20 18:00N 21°06' E 072°40'0 0.1
2018-Jun-20 17:30N 21°06' E 072°40'011.4
2018-Jun-20 17:30N 21°06' E 072°40'0 0.1
2018-Jun-20 17:00N 21°06' E 072°40'072.3
2018-Jun-20 17:00N 21°06' E 072°40'0 0.1
2018-Jun-20 16:30N 21°06' E 072°40'0108.5
2018-Jun-20 16:30N 21°06' E 072°40'0 0.1
2018-Jun-20 16:00N 21°06' E 072°40'0216.9
2018-Jun-20 16:00N 21°06' E 072°40'0 0.0
2018-Jun-20 15:30N 21°06' E 072°40'0 0.5
2018-Jun-20 15:23N 21°06' E 072°40'0 0.0
2018-Jun-20 15:00N 21°06' E 072°40'054.0
2018-Jun-20 15:00N 21°06' E 072°40'0 0.1
2018-Jun-20 14:30N 21°06' E 072°40'0 2.6
2018-Jun-20 14:29N 21°06' E 072°40'0 0.1
2018-Jun-20 14:00N 21°06' E 072°40'0 5.3
2018-Jun-20 14:00N 21°06' E 072°40'0 0.5
2018-Jun-20 13:30N 21°06' E 072°40'043.9
2018-Jun-20 13:30N 21°06' E 072°40'0 0.4
2018-Jun-20 13:00N 21°06' E 072°40'0 9.5
2018-Jun-20 12:59N 21°06' E 072°40'0 0.2
2018-Jun-20 12:30N 21°06' E 072°40'010.7
2018-Jun-20 12:30N 21°06' E 072°40'0 0.2
2018-Jun-20 12:00N 21°06' E 072°40'023.8
2018-Jun-20 12:00N 21°06' E 072°40'0 0.0
2018-Jun-20 11:30N 21°06' E 072°40'0177.4
2018-Jun-20 11:30N 21°06' E 072°40'0 0.4
2018-Jun-20 11:00N 21°06' E 072°40'0 1.8
2018-Jun-20 10:58N 21°06' E 072°40'0 0.0
2018-Jun-20 10:30N 21°06' E 072°40'065.1
2018-Jun-20 10:30N 21°06' E 072°40'0 0.1
2018-Jun-20 10:00N 21°06' E 072°40'054.0
2018-Jun-20 10:00N 21°06' E 072°40'0 0.1
2018-Jun-20 09:30N 21°06' E 072°40'072.0
2018-Jun-20 09:30N 21°06' E 072°40'0 0.1
2018-Jun-20 09:00N 21°06' E 072°40'0216.0
2018-Jun-20 09:00N 21°06' E 072°40'0 0.1
2018-Jun-20 08:30N 21°06' E 072°40'0108.0
2018-Jun-20 08:30N 21°06' E 072°40'0 0.1
2018-Jun-20 08:00N 21°06' E 072°40'079.5
2018-Jun-20 08:00N 21°06' E 072°40'0 0.0
2018-Jun-20 07:30N 21°06' E 072°40'0 2.0
2018-Jun-20 07:28N 21°06' E 072°40'0 0.1
2018-Jun-20 07:00N 21°06' E 072°40'0 6.6
2018-Jun-20 07:00N 21°06' E 072°40'0 0.0
2018-Jun-20 06:29N 21°06' E 072°40'059.4
2018-Jun-20 06:29N 21°06' E 072°40'0 0.0
2018-Jun-20 06:00N 21°06' E 072°40'0 6.3
2018-Jun-20 06:00N 21°06' E 072°40'0 0.1
2018-Jun-20 05:30N 21°06' E 072°40'0 2.9
2018-Jun-20 05:29N 21°06' E 072°40'0 0.0
2018-Jun-20 05:00N 21°06' E 072°40'079.5
2018-Jun-20 05:00N 21°06' E 072°40'0 0.1
2018-Jun-20 04:30N 21°06' E 072°40'0497.2
2018-Jun-20 04:30N 21°07' E 072°40'0 0.0
2018-Jun-20 04:00N 21°07' E 072°40'0 7.3
2018-Jun-20 03:59N 21°06' E 072°40'0 0.3
2018-Jun-20 03:30N 21°06' E 072°40'0 1.9
2018-Jun-20 03:26N 21°06' E 072°40'0 0.0
2018-Jun-20 03:00N 21°06' E 072°40'010.4
2018-Jun-20 03:00N 21°06' E 072°40'0 0.1
2018-Jun-20 02:30N 21°06' E 072°40'0216.9
2018-Jun-20 02:30N 21°06' E 072°40'0 0.1
2018-Jun-20 02:00N 21°06' E 072°40'0195.4
2018-Jun-20 02:00N 21°06' E 072°40'0 0.0
2018-Jun-20 01:30N 21°06' E 072°40'012.8
2018-Jun-20 01:30N 21°06' E 072°40'0 0.1
2018-Jun-20 01:00N 21°06' E 072°40'0 9.8
2018-Jun-20 01:00N 21°06' E 072°40'0 0.0
2018-Jun-20 00:30N 21°06' E 072°40'0 2.6
2018-Jun-20 00:29N 21°06' E 072°40'0 0.0
2018-Jun-20 00:00N 21°06' E 072°40'0 1.7
2018-Jun-19 23:58N 21°06' E 072°40'0 0.0
2018-Jun-19 23:30N 21°06' E 072°40'097.2
2018-Jun-19 23:30N 21°06' E 072°40'0 0.0
2018-Jun-19 23:00N 21°06' E 072°40'012.7
2018-Jun-19 23:00N 21°06' E 072°40'0 0.0
2018-Jun-19 22:30N 21°06' E 072°40'0108.0
2018-Jun-19 22:30N 21°06' E 072°40'0 0.1
2018-Jun-19 22:00N 21°06' E 072°40'072.0
2018-Jun-19 22:00N 21°06' E 072°40'0 0.1
2018-Jun-19 21:30N 21°06' E 072°40'079.2
2018-Jun-19 21:30N 21°06' E 072°40'0 0.1
2018-Jun-19 21:00N 21°06' E 072°40'011.3
2018-Jun-19 21:00N 21°06' E 072°40'0 0.1
2018-Jun-19 20:30N 21°06' E 072°40'0 2.9
2018-Jun-19 20:29N 21°06' E 072°40'0 0.1
2018-Jun-19 20:00N 21°06' E 072°40'0118.8
2018-Jun-19 20:00N 21°06' E 072°40'0 0.1
2018-Jun-19 19:30N 21°06' E 072°40'0 5.7
2018-Jun-19 19:30N 21°06' E 072°40'0 0.1
2018-Jun-19 19:00N 21°06' E 072°40'010.3
2018-Jun-19 19:00N 21°06' E 072°40'0 0.1
2018-Jun-19 18:30N 21°06' E 072°40'0118.8
2018-Jun-19 18:30N 21°06' E 072°40'0 0.1
2018-Jun-19 18:00N 21°06' E 072°40'0237.6
2018-Jun-19 18:00N 21°06' E 072°40'0 0.1
2018-Jun-19 17:30N 21°06' E 072°40'079.2
2018-Jun-19 17:30N 21°06' E 072°40'0 0.1
2018-Jun-19 17:00N 21°06' E 072°40'0 9.4
2018-Jun-19 17:00N 21°06' E 072°40'0 0.1
2018-Jun-19 16:30N 21°06' E 072°40'054.2
2018-Jun-19 16:30N 21°06' E 072°40'0 0.1
2018-Jun-19 16:00N 21°06' E 072°40'0119.2
2018-Jun-19 16:00N 21°06' E 072°40'0 0.1
2018-Jun-19 15:30N 21°06' E 072°40'0 9.9
2018-Jun-19 15:30N 21°06' E 072°40'0 0.0
2018-Jun-19 15:00N 21°06' E 072°40'0 4.2
2018-Jun-19 14:59N 21°06' E 072°40'0 0.0
2018-Jun-19 14:30N 21°06' E 072°40'065.1
2018-Jun-19 14:30N 21°06' E 072°40'0 0.1
2018-Jun-19 14:00N 21°06' E 072°40'1114.7
2018-Jun-19 14:00N 21°07' E 072°40'0 0.6
2018-Jun-19 13:30N 21°07' E 072°40'1103.8
2018-Jun-19 13:30N 21°06' E 072°40'1 1.2
2018-Jun-19 13:00N 21°07' E 072°40'127.3
2018-Jun-19 12:59N 21°06' E 072°40'0 0.4
2018-Jun-19 12:30N 21°06' E 072°40'122.2
2018-Jun-19 12:28N 21°07' E 072°40'1 1.5
2018-Jun-19 12:00N 21°06' E 072°40'121.2
2018-Jun-19 11:58N 21°07' E 072°40'1 1.6
2018-Jun-19 11:30N 21°06' E 072°40'0 7.6
2018-Jun-19 11:30N 21°06' E 072°40'0 0.1
2018-Jun-19 11:00N 21°06' E 072°40'0 5.4
2018-Jun-19 11:00N 21°06' E 072°40'0 0.0
2018-Jun-19 10:30N 21°06' E 072°40'0112.2
2018-Jun-19 10:30N 21°06' E 072°40'0 0.1
2018-Jun-19 10:00N 21°06' E 072°40'067.9
2018-Jun-19 10:00N 21°06' E 072°40'0 0.1
2018-Jun-19 09:30N 21°06' E 072°40'0 5.1
2018-Jun-19 09:29N 21°06' E 072°40'0 0.1
2018-Jun-19 09:00N 21°06' E 072°40'073.2
2018-Jun-19 09:00N 21°06' E 072°40'0 0.1
2018-Jun-19 08:30N 21°06' E 072°40'0 1.1
2018-Jun-19 08:27N 21°06' E 072°40'0 0.0
2018-Jun-19 08:00N 21°06' E 072°40'0 3.9
2018-Jun-19 07:59N 21°06' E 072°40'0 0.0
2018-Jun-19 07:30N 21°06' E 072°40'0 2.2
2018-Jun-19 07:29N 21°06' E 072°40'0 0.1
2018-Jun-19 07:00N 21°06' E 072°40'073.2
2018-Jun-19 07:00N 21°06' E 072°40'0 0.1
2018-Jun-19 06:30N 21°06' E 072°40'0108.5
2018-Jun-19 06:30N 21°06' E 072°40'0 0.1
2018-Jun-19 06:00N 21°06' E 072°40'0109.9
2018-Jun-19 06:00N 21°06' E 072°40'0 0.0
2018-Jun-19 05:30N 21°06' E 072°40'0 5.9
2018-Jun-19 05:30N 21°06' E 072°40'0 0.0
2018-Jun-19 05:00N 21°06' E 072°40'0 2.7
2018-Jun-19 04:59N 21°06' E 072°40'0 0.2
2018-Jun-19 04:30N 21°07' E 072°40'013.3
2018-Jun-19 04:30N 21°06' E 072°40'0 0.0
2018-Jun-19 04:00N 21°06' E 072°40'073.2
2018-Jun-19 04:00N 21°06' E 072°40'0 0.1
2018-Jun-19 03:30N 21°06' E 072°40'0236.6
2018-Jun-19 03:30N 21°06' E 072°40'0 0.0
2018-Jun-19 03:00N 21°06' E 072°40'058.9
2018-Jun-19 03:00N 21°06' E 072°40'0 0.0
2018-Jun-19 02:30N 21°06' E 072°40'0308.4
2018-Jun-19 02:30N 21°06' E 072°40'0 0.5
2018-Jun-19 02:00N 21°06' E 072°40'0459.1
2018-Jun-19 02:00N 21°06' E 072°40'0 0.5
2018-Jun-19 01:30N 21°06' E 072°40'0459.1
2018-Jun-19 01:30N 21°06' E 072°40'0 0.5
2018-Jun-19 01:00N 21°06' E 072°40'0460.7
2018-Jun-19 01:00N 21°06' E 072°40'0 0.5
2018-Jun-19 00:30N 21°06' E 072°40'0 2.2
2018-Jun-19 00:29N 21°06' E 072°40'0 0.1
2018-Jun-19 00:00N 21°06' E 072°40'099.3
2018-Jun-19 00:00N 21°06' E 072°40'0 0.1
2018-Jun-18 23:30N 21°06' E 072°40'0 9.0
2018-Jun-18 23:30N 21°06' E 072°40'0 0.1
2018-Jun-18 23:00N 21°06' E 072°40'0 4.8
2018-Jun-18 23:00N 21°06' E 072°40'0 0.1
2018-Jun-18 22:30N 21°06' E 072°40'0 4.6
2018-Jun-18 22:30N 21°06' E 072°40'0 0.1
2018-Jun-18 22:00N 21°06' E 072°40'010.7
2018-Jun-18 22:00N 21°06' E 072°40'0 0.1
2018-Jun-18 21:30N 21°06' E 072°40'074.8
2018-Jun-18 21:30N 21°06' E 072°40'0 0.0
2018-Jun-18 21:00N 21°06' E 072°40'0 2.3
2018-Jun-18 20:59N 21°06' E 072°40'0 0.0
2018-Jun-18 20:30N 21°06' E 072°40'073.2
2018-Jun-18 20:30N 21°06' E 072°40'0 0.1
2018-Jun-18 20:00N 21°06' E 072°40'0109.9
2018-Jun-18 20:00N 21°06' E 072°40'0 0.0
2018-Jun-18 19:30N 21°06' E 072°40'0 3.9
2018-Jun-18 19:29N 21°06' E 072°40'0 0.0
2018-Jun-18 19:00N 21°06' E 072°40'073.2
2018-Jun-18 19:00N 21°06' E 072°40'0 0.1
2018-Jun-18 18:30N 21°06' E 072°40'074.8
2018-Jun-18 18:30N 21°06' E 072°40'0 0.0
2018-Jun-18 18:00N 21°06' E 072°40'0 1.1
2018-Jun-18 17:57N 21°06' E 072°40'0 0.0
2018-Jun-18 17:30N 21°06' E 072°40'074.8
2018-Jun-18 17:30N 21°06' E 072°40'0 0.1
2018-Jun-18 17:00N 21°06' E 072°40'074.8
2018-Jun-18 17:00N 21°06' E 072°40'0 0.1
2018-Jun-18 16:30N 21°06' E 072°40'074.8
2018-Jun-18 16:30N 21°06' E 072°40'0 0.1
2018-Jun-18 16:00N 21°06' E 072°40'099.3
2018-Jun-18 16:00N 21°06' E 072°40'0 0.1
2018-Jun-18 15:30N 21°06' E 072°40'066.2
2018-Jun-18 15:30N 21°06' E 072°40'0 0.1
2018-Jun-18 15:00N 21°06' E 072°40'074.8
2018-Jun-18 15:00N 21°06' E 072°40'0 0.1
2018-Jun-18 14:30N 21°06' E 072°40'0 3.4
2018-Jun-18 14:29N 21°06' E 072°40'0 0.0
2018-Jun-18 14:00N 21°06' E 072°40'0 3.9
2018-Jun-18 13:59N 21°06' E 072°40'0 0.0
2018-Jun-18 13:30N 21°06' E 072°40'0 5.2
2018-Jun-18 13:29N 21°06' E 072°40'0 0.1
2018-Jun-18 13:00N 21°06' E 072°40'0270.2
2018-Jun-18 13:00N 21°07' E 072°40'0 0.3
2018-Jun-18 12:30N 21°06' E 072°40'12208.4
2018-Jun-18 12:30N 21°08' E 072°40'1 2.5
2018-Jun-18 12:00N 21°06' E 072°40'3409.7
2018-Jun-18 12:00N 21°09' E 072°40'3 5.3
2018-Jun-18 11:30N 21°06' E 072°40'33148.5
2018-Jun-18 11:30N 21°09' E 072°40'3 5.3
2018-Jun-18 11:00N 21°06' E 072°40'33200.9
2018-Jun-18 11:00N 21°09' E 072°40'1 2.7
2018-Jun-18 10:30N 21°08' E 072°40'114.6
2018-Jun-18 10:25N 21°06' E 072°40'0 0.0
2018-Jun-18 10:00N 21°06' E 072°40'011.4
2018-Jun-18 10:00N 21°06' E 072°40'0 0.0
2018-Jun-18 09:30N 21°06' E 072°40'0 6.6
2018-Jun-18 09:29N 21°06' E 072°40'0 0.0
2018-Jun-18 09:00N 21°06' E 072°40'0 6.0
2018-Jun-18 08:59N 21°06' E 072°40'0 0.1
2018-Jun-18 08:30N 21°06' E 072°40'012.3
2018-Jun-18 08:30N 21°06' E 072°40'0 0.1
2018-Jun-18 08:00N 21°06' E 072°40'0135.7
2018-Jun-18 08:00N 21°06' E 072°40'0 0.2
2018-Jun-18 07:30N 21°06' E 072°40'083.6
2018-Jun-18 07:30N 21°06' E 072°40'  

Dump ship's entire track history